Time;durP1;ratioP1;P1;durP2;ratioP2;P2;SDS_P1;SDS_P2;PMS_P1;PMS_P2;Temp;Humidity;BMP_temperature;BMP_pressure;BME280_temperature;BME280_humidity;BME280_pressure;Samples;Min_cycle;Max_cycle;Signal;HPM_P1;HPM_P2
2022/11/27 00:01:14;;;;;;;10.48;5.78;;;4.30;99.90;;;;;;5010557;28;20389;-69
2022/11/27 00:03:41;;;;;;;12.15;4.72;;;4.20;99.90;;;;;;5012045;28;20068;-70
2022/11/27 00:06:10;;;;;;;11.38;6.43;;;4.20;99.90;;;;;;5010807;28;20397;-69
2022/11/27 00:08:36;;;;;;;8.75;5.32;;;4.20;99.90;;;;;;5009355;28;20037;-69
2022/11/27 00:11:29;;;;;;;14.80;6.50;;;4.20;99.90;;;;;;5010568;28;20092;-69
2022/11/27 00:13:55;;;;;;;8.70;4.30;;;4.10;99.90;;;;;;5010222;28;20026;-69
2022/11/27 00:16:22;;;;;;;12.23;6.13;;;4.00;99.90;;;;;;5010595;28;20080;-69
2022/11/27 00:18:49;;;;;;;12.10;7.05;;;3.90;99.90;;;;;;5009333;28;20117;-69
2022/11/27 00:21:22;;;;;;;11.98;7.05;;;3.90;99.90;;;;;;5025705;28;20034;-69
2022/11/27 00:23:50;;;;;;;13.13;6.13;;;3.80;99.90;;;;;;5010330;28;20493;-68
2022/11/27 00:26:16;;;;;;;10.20;5.25;;;3.60;99.90;;;;;;5010682;28;20493;-69
2022/11/27 00:28:42;;;;;;;9.25;4.63;;;3.50;99.90;;;;;;5011433;28;20065;-69
2022/11/27 00:31:20;;;;;;;10.13;5.43;;;3.40;99.90;;;;;;5014482;28;20066;-69
2022/11/27 00:33:46;;;;;;;11.05;5.57;;;3.30;99.90;;;;;;5013068;28;20040;-69
2022/11/27 00:36:13;;;;;;;7.47;4.28;;;3.20;99.90;;;;;;5029831;28;20505;-69
2022/11/27 00:38:39;;;;;;;9.52;5.10;;;3.00;99.90;;;;;;5014069;28;20038;-69
2022/11/27 00:41:14;;;;;;;7.63;4.55;;;2.90;99.90;;;;;;5014211;28;20563;-69
2022/11/27 00:43:40;;;;;;;10.98;5.95;;;2.90;99.90;;;;;;5014000;28;20404;-69
2022/11/27 00:46:05;;;;;;;12.18;5.78;;;2.80;99.90;;;;;;5014349;28;20149;-69
2022/11/27 00:48:32;;;;;;;11.23;5.35;;;2.80;99.90;;;;;;5014011;28;20509;-69
2022/11/27 00:51:05;;;;;;;10.60;4.88;;;2.80;99.90;;;;;;5003832;28;20030;-68
2022/11/27 00:53:31;;;;;;;7.07;4.40;;;2.70;99.90;;;;;;5008778;28;20030;-68
2022/11/27 00:55:57;;;;;;;9.18;5.47;;;2.60;99.90;;;;;;5013101;28;20398;-69
2022/11/27 00:58:24;;;;;;;6.18;4.07;;;2.60;99.90;;;;;;5012446;28;20137;-69
2022/11/27 01:01:01;;;;;;;5.32;3.60;;;2.60;99.90;;;;;;5013802;28;20037;-69
2022/11/27 01:03:28;;;;;;;8.38;3.65;;;2.60;99.90;;;;;;5022236;28;20397;-69
2022/11/27 01:05:55;;;;;;;9.25;4.90;;;2.70;99.90;;;;;;5012634;28;20396;-69
2022/11/27 01:08:21;;;;;;;6.80;4.90;;;2.70;99.90;;;;;;5012552;28;20033;-68
2022/11/27 01:10:55;;;;;;;14.20;6.63;;;2.80;99.90;;;;;;5029022;28;20030;-68
2022/11/27 01:13:34;;;;;;;8.68;5.85;;;2.90;99.90;;;;;;5012509;28;20038;-68
2022/11/27 01:16:09;;;;;;;14.85;5.50;;;2.90;99.90;;;;;;5028992;28;20026;-68
2022/11/27 01:18:38;;;;;;;8.98;3.75;;;3.00;99.90;;;;;;5013175;28;20040;-69
2022/11/27 01:21:04;;;;;;;12.68;5.97;;;3.00;99.90;;;;;;5013811;28;20046;-69
2022/11/27 01:23:31;;;;;;;28.02;4.13;;;3.10;99.90;;;;;;5013400;28;20489;-69
2022/11/27 01:26:00;;;;;;;10.38;5.10;;;3.20;99.90;;;;;;5012342;28;20034;-69
2022/11/27 01:28:26;;;;;;;8.60;4.75;;;3.20;99.90;;;;;;5013021;28;20040;-69
2022/11/27 01:30:52;;;;;;;11.57;5.15;;;3.20;99.90;;;;;;5013427;28;20025;-69
2022/11/27 01:33:18;;;;;;;10.30;5.93;;;3.20;99.90;;;;;;5012065;28;20022;-68
2022/11/27 01:35:57;;;;;;;11.70;6.32;;;3.20;99.90;;;;;;5013985;28;20033;-69
2022/11/27 01:38:23;;;;;;;8.50;4.65;;;3.20;99.90;;;;;;5011851;28;20061;-69
2022/11/27 01:41:09;;;;;;;12.13;5.90;;;3.10;99.90;;;;;;5027234;28;20029;-68
2022/11/27 01:43:57;;;;;;;11.68;6.47;;;3.10;99.90;;;;;;5011537;28;20068;-68
2022/11/27 01:46:45;;;;;;;9.20;4.72;;;3.20;99.90;;;;;;5020945;28;20034;-68
2022/11/27 01:49:10;;;;;;;18.10;5.93;;;3.10;99.90;;;;;;5011453;28;20037;-69
2022/11/27 01:51:40;;;;;;;9.13;4.65;;;3.00;99.90;;;;;;5013127;28;20049;-68
2022/11/27 01:54:07;;;;;;;9.48;5.05;;;3.00;99.90;;;;;;4995470;28;20489;-69
2022/11/27 01:56:33;;;;;;;8.52;5.15;;;2.80;99.90;;;;;;5013359;28;20528;-69
2022/11/27 01:59:01;;;;;;;9.15;4.00;;;2.80;99.90;;;;;;5013940;28;20038;-69
2022/11/27 02:01:26;;;;;;;7.20;5.25;;;2.70;99.90;;;;;;4999916;28;20504;-69
2022/11/27 02:03:56;;;;;;;8.13;3.50;;;2.60;99.90;;;;;;4999512;28;20217;-68
2022/11/27 02:06:23;;;;;;;10.57;4.30;;;2.40;99.90;;;;;;5003238;28;20038;-69
2022/11/27 02:08:49;;;;;;;9.93;4.20;;;2.40;99.90;;;;;;5012788;28;20026;-68
2022/11/27 02:11:26;;;;;;;10.45;3.80;;;2.30;99.90;;;;;;5010563;28;20099;-69
2022/11/27 02:14:17;;;;;;;7.68;4.70;;;2.10;99.90;;;;;;5012894;28;20100;-69
2022/11/27 02:17:11;;;;;;;;;;;2.10;99.90;;;;;;5010278;28;20048;-68
2022/11/27 02:20:06;;;;;;;10.75;3.30;;;2.00;99.90;;;;;;4996268;28;19937;-68
2022/11/27 02:23:05;;;;;;;10.32;4.15;;;2.00;99.90;;;;;;5006513;28;20030;-68
2022/11/27 02:25:49;;;;;;;11.35;4.80;;;1.90;99.90;;;;;;5002798;28;20088;-68
2022/11/27 02:28:58;;;;;;;8.13;4.70;;;1.90;99.90;;;;;;5002073;28;20034;-69
2022/11/27 02:31:47;;;;;;;9.73;4.38;;;1.80;99.90;;;;;;5000975;28;20041;-68
2022/11/27 02:34:29;;;;;;;10.48;4.15;;;1.80;99.90;;;;;;5012430;28;20026;-68
2022/11/27 02:37:14;;;;;;;11.60;5.38;;;1.70;99.90;;;;;;5010789;28;20058;-68
2022/11/27 02:40:08;;;;;;;18.85;7.07;;;1.70;99.90;;;;;;5012394;28;20099;-68
2022/11/27 02:42:51;;;;;;;22.80;5.95;;;1.70;99.90;;;;;;5007217;28;20045;-69
2022/11/27 02:45:24;;;;;;;10.50;6.40;;;1.90;99.90;;;;;;4991490;28;20030;-68
2022/11/27 02:47:50;;;;;;;10.48;5.03;;;2.00;99.90;;;;;;5007672;28;20041;-69
2022/11/27 02:50:22;;;;;;;8.38;4.00;;;2.00;99.90;;;;;;4991025;28;20025;-68
2022/11/27 02:52:52;;;;;;;13.38;4.72;;;2.00;99.90;;;;;;5007647;28;20036;-69
2022/11/27 02:55:25;;;;;;;10.45;5.72;;;2.00;99.90;;;;;;4991337;28;20035;-68
2022/11/27 02:57:55;;;;;;;14.30;5.47;;;2.00;99.90;;;;;;5007761;28;20065;-68
2022/11/27 03:00:21;;;;;;;20.38;5.85;;;2.00;99.90;;;;;;4991086;28;20030;-68
2022/11/27 03:02:57;;;;;;;9.00;5.18;;;1.70;99.90;;;;;;5008822;28;20030;-69
2022/11/27 03:05:29;;;;;;;13.02;6.05;;;1.80;99.90;;;;;;5006992;28;20030;-68
2022/11/27 03:08:37;;;;;;;7.90;4.45;;;1.80;99.90;;;;;;5024166;28;20099;-69
2022/11/27 03:11:12;;;;;;;9.07;4.80;;;1.80;99.90;;;;;;5009281;28;20592;-68
2022/11/27 03:13:46;;;;;;;6.85;4.68;;;1.80;99.90;;;;;;5010127;28;20026;-68
2022/11/27 03:16:42;;;;;;;8.85;4.20;;;1.80;99.90;;;;;;5009545;28;20040;-68
2022/11/27 03:19:37;;;;;;;10.73;5.38;;;1.80;99.90;;;;;;5011615;28;20029;-69
2022/11/27 03:22:04;;;;;;;8.93;4.05;;;1.80;99.90;;;;;;5009614;28;20037;-69
2022/11/27 03:24:34;;;;;;;8.75;5.45;;;1.90;99.90;;;;;;5011598;28;20034;-69
2022/11/27 03:27:01;;;;;;;8.27;5.07;;;1.90;99.90;;;;;;5009654;28;20116;-69
2022/11/27 03:29:46;;;;;;;11.15;6.07;;;1.90;99.90;;;;;;5011075;28;20132;-70
2022/11/27 03:32:13;;;;;;;8.02;4.85;;;2.00;99.90;;;;;;5009623;28;20068;-69
2022/11/27 03:34:40;;;;;;;15.15;6.43;;;2.00;99.90;;;;;;5010153;28;20045;-69
2022/11/27 03:37:05;;;;;;;12.73;5.85;;;2.10;99.90;;;;;;5010914;28;20568;-69
2022/11/27 03:39:33;;;;;;;13.18;6.15;;;2.10;99.90;;;;;;5009965;28;20108;-70
2022/11/27 03:43:01;;;;;;;11.65;5.55;;;2.10;99.90;;;;;;5025381;28;20029;-70
2022/11/27 03:45:44;;;;;;;17.90;6.20;;;2.10;99.90;;;;;;4998648;28;20129;-70
2022/11/27 03:48:46;;;;;;;33.47;17.80;;;2.20;99.90;;;;;;5009880;28;20030;-70
2022/11/27 03:51:34;;;;;;;27.25;11.77;;;2.20;99.90;;;;;;5010406;28;20040;-69
2022/11/27 03:54:27;;;;;;;24.50;13.02;;;2.30;99.90;;;;;;5009794;28;20029;-69
2022/11/27 03:57:35;;;;;;;30.67;12.25;;;2.30;99.90;;;;;;5009192;28;20416;-70
2022/11/27 04:00:06;;;;;;;18.02;7.60;;;2.40;99.90;;;;;;5011686;28;20121;-68
2022/11/27 04:02:46;;;;;;;31.08;14.75;;;2.40;99.90;;;;;;5009292;28;20032;-69
2022/11/27 04:05:13;;;;;;;8.88;5.18;;;2.40;99.90;;;;;;5009208;28;20120;-68
2022/11/27 04:07:39;;;;;;;10.50;6.47;;;2.40;99.90;;;;;;5009398;28;20044;-69
2022/11/27 04:10:08;;;;;;;14.27;7.35;;;2.30;99.90;;;;;;5009126;28;20030;-69
2022/11/27 04:12:34;;;;;;;11.20;5.40;;;2.30;99.90;;;;;;5010433;28;20120;-69
2022/11/27 04:15:00;;;;;;;14.32;6.93;;;2.30;99.90;;;;;;5008824;28;20116;-68
2022/11/27 04:17:26;;;;;;;9.13;4.88;;;2.30;99.90;;;;;;5009473;28;20125;-68
2022/11/27 04:19:51;;;;;;;11.13;6.22;;;2.30;99.90;;;;;;5008978;28;20044;-69
2022/11/27 04:22:18;;;;;;;20.10;7.10;;;2.30;99.90;;;;;;5010533;28;20036;-68
2022/11/27 04:24:43;;;;;;;23.15;5.93;;;2.30;99.90;;;;;;5010231;28;20026;-68
2022/11/27 04:27:09;;;;;;;9.40;6.60;;;2.40;99.90;;;;;;5010419;28;20041;-68
2022/11/27 04:29:35;;;;;;;11.30;6.78;;;2.20;99.90;;;;;;5010364;28;20109;-68
2022/11/27 04:32:02;;;;;;;7.55;4.22;;;2.20;99.90;;;;;;5009604;28;20028;-68
2022/11/27 04:34:28;;;;;;;8.63;4.88;;;2.20;99.90;;;;;;5010941;28;20033;-69
2022/11/27 04:36:53;;;;;;;8.20;3.67;;;2.00;99.90;;;;;;5008935;28;20067;-68
2022/11/27 04:39:19;;;;;;;8.95;4.43;;;1.90;99.90;;;;;;5010567;28;20046;-68
2022/11/27 04:41:45;;;;;;;6.07;4.55;;;1.80;99.90;;;;;;5009698;28;20117;-69
2022/11/27 04:44:11;;;;;;;9.05;3.80;;;1.70;99.90;;;;;;5010442;28;20030;-69
2022/11/27 04:46:37;;;;;;;7.07;4.35;;;1.70;99.90;;;;;;5010009;28;20034;-69
2022/11/27 04:49:03;;;;;;;6.82;4.65;;;1.60;99.90;;;;;;5010371;28;20064;-69
2022/11/27 04:51:29;;;;;;;6.75;4.28;;;1.60;99.90;;;;;;5008433;28;20034;-69
2022/11/27 04:53:55;;;;;;;18.45;3.55;;;1.60;99.90;;;;;;5009262;28;20030;-69
2022/11/27 04:56:21;;;;;;;9.30;4.32;;;1.60;99.90;;;;;;5010085;28;20033;-69
2022/11/27 04:58:46;;;;;;;6.43;4.15;;;1.60;99.90;;;;;;5010437;28;20040;-70
2022/11/27 05:01:13;;;;;;;7.00;4.60;;;1.60;99.90;;;;;;5009854;28;20030;-69
2022/11/27 05:03:38;;;;;;;27.02;4.47;;;1.60;99.90;;;;;;5010031;28;20045;-69
2022/11/27 05:06:04;;;;;;;11.45;4.53;;;1.60;99.90;;;;;;5009850;28;20034;-69
2022/11/27 05:08:32;;;;;;;5.88;3.72;;;1.50;99.90;;;;;;5010214;28;20038;-70
2022/11/27 05:11:04;;;;;;;6.90;3.85;;;1.50;99.90;;;;;;5008141;28;20117;-69
2022/11/27 05:13:30;;;;;;;8.40;4.05;;;1.60;99.90;;;;;;5010177;28;20039;-69
2022/11/27 05:15:56;;;;;;;8.15;4.28;;;1.60;99.90;;;;;;5012564;28;20033;-69
2022/11/27 05:18:22;;;;;;;10.00;4.50;;;1.50;99.90;;;;;;5013779;28;20030;-69
2022/11/27 05:20:59;;;;;;;5.82;3.85;;;1.50;99.90;;;;;;5011943;28;20036;-69
2022/11/27 05:23:25;;;;;;;7.40;3.97;;;1.50;99.90;;;;;;5005633;28;20030;-69
2022/11/27 05:25:52;;;;;;;5.82;3.60;;;1.50;99.90;;;;;;5013193;28;20038;-68
2022/11/27 05:28:18;;;;;;;9.63;4.90;;;1.50;99.90;;;;;;5013710;28;20033;-68
2022/11/27 05:30:45;;;;;;;12.95;6.82;;;1.50;99.90;;;;;;4995339;28;20042;-68
2022/11/27 05:33:11;;;;;;;8.82;4.65;;;1.50;99.90;;;;;;5013346;28;20044;-68
2022/11/27 05:35:37;;;;;;;7.13;3.97;;;1.50;99.90;;;;;;4995155;28;20038;-68
2022/11/27 05:38:03;;;;;;;5.57;3.63;;;1.50;99.90;;;;;;5013557;28;20034;-68
2022/11/27 05:40:29;;;;;;;9.95;5.82;;;1.50;99.90;;;;;;5011242;28;20113;-68
2022/11/27 05:42:54;;;;;;;15.15;4.32;;;1.50;99.90;;;;;;5013139;28;20037;-69
2022/11/27 05:45:20;;;;;;;19.95;4.90;;;1.50;99.90;;;;;;5012754;28;20029;-70
2022/11/27 05:47:46;;;;;;;6.38;3.83;;;1.50;99.90;;;;;;5013336;28;20110;-69
2022/11/27 05:50:11;;;;;;;20.85;5.15;;;1.40;99.90;;;;;;5012631;28;20519;-70
2022/11/27 05:52:37;;;;;;;10.10;5.80;;;1.40;99.90;;;;;;5011831;28;20025;-69
2022/11/27 05:55:03;;;;;;;10.68;4.65;;;1.40;99.90;;;;;;5012427;28;20385;-70
2022/11/27 05:57:29;;;;;;;11.43;6.63;;;1.50;99.90;;;;;;5013088;28;20076;-69
2022/11/27 05:59:56;;;;;;;8.02;3.22;;;1.40;99.90;;;;;;5010054;28;20033;-69
2022/11/27 06:02:23;;;;;;;15.75;5.22;;;1.50;99.90;;;;;;5020023;28;20072;-68
2022/11/27 06:04:49;;;;;;;21.77;5.13;;;1.50;99.90;;;;;;5001126;28;20219;-69
2022/11/27 06:07:15;;;;;;;5.32;3.67;;;1.50;99.90;;;;;;5000971;28;20503;-69
2022/11/27 06:09:41;;;;;;;18.38;6.20;;;1.50;99.90;;;;;;5005745;28;20045;-69
2022/11/27 06:12:07;;;;;;;12.18;6.03;;;1.50;99.90;;;;;;5010111;28;20575;-69
2022/11/27 06:14:34;;;;;;;8.95;4.47;;;1.50;99.90;;;;;;5012267;28;20038;-69
2022/11/27 06:17:01;;;;;;;16.52;6.60;;;1.50;99.90;;;;;;5008559;28;20050;-69
2022/11/27 06:19:27;;;;;;;14.52;5.82;;;1.50;99.90;;;;;;5004866;28;20057;-69
2022/11/27 06:21:53;;;;;;;12.32;4.93;;;1.60;99.90;;;;;;5011350;28;20030;-69
2022/11/27 06:24:19;;;;;;;14.98;6.20;;;1.60;99.90;;;;;;5011507;28;20037;-70
2022/11/27 06:26:45;;;;;;;9.70;5.30;;;1.60;99.90;;;;;;5009313;28;20401;-70
2022/11/27 06:29:11;;;;;;;16.30;5.78;;;1.70;99.90;;;;;;5011160;28;20030;-70
2022/11/27 06:31:37;;;;;;;6.97;4.35;;;1.70;99.90;;;;;;5011858;28;20030;-69
2022/11/27 06:34:04;;;;;;;9.10;6.57;;;1.70;99.90;;;;;;5010696;28;20029;-69
2022/11/27 06:36:36;;;;;;;11.73;5.68;;;1.70;99.90;;;;;;5010495;28;20025;-69
2022/11/27 06:39:03;;;;;;;;;;;1.80;99.90;;;;;;5011996;28;20025;-70
2022/11/27 06:41:29;;;;;;;25.90;6.22;;;1.70;99.90;;;;;;5011699;28;20004;-70
2022/11/27 06:43:58;;;;;;;7.50;4.00;;;1.80;99.90;;;;;;5006724;28;20072;-69
2022/11/27 06:46:25;;;;;;;7.80;5.80;;;1.80;99.90;;;;;;5003884;28;20137;-70
2022/11/27 06:48:53;;;;;;;7.15;4.88;;;1.80;99.90;;;;;;5027402;28;20089;-69
2022/11/27 06:51:25;;;;;;;11.82;6.53;;;1.70;99.90;;;;;;5008410;28;20053;-69
2022/11/27 06:53:52;;;;;;;10.07;6.18;;;1.70;99.90;;;;;;5027268;28;20030;-70
2022/11/27 06:56:22;;;;;;;8.38;3.50;;;1.80;99.90;;;;;;5009243;28;20022;-69
2022/11/27 06:58:52;;;;;;;7.95;5.43;;;1.80;99.90;;;;;;5023554;28;20509;-70
2022/11/27 07:01:18;;;;;;;15.00;6.15;;;1.80;99.90;;;;;;5004074;28;20026;-70
2022/11/27 07:03:44;;;;;;;10.63;5.93;;;1.80;99.90;;;;;;5010578;28;20072;-70
2022/11/27 07:06:14;;;;;;;26.60;7.43;;;1.90;99.90;;;;;;5010187;28;20026;-70
2022/11/27 07:08:40;;;;;;;14.13;5.28;;;1.90;99.90;;;;;;5024910;28;20036;-71
2022/11/27 07:11:15;;;;;;;10.90;6.05;;;2.00;99.90;;;;;;5025656;28;20030;-70
2022/11/27 07:13:41;;;;;;;10.18;5.50;;;2.10;99.90;;;;;;5011030;28;20034;-70
2022/11/27 07:16:09;;;;;;;11.07;6.30;;;2.10;99.90;;;;;;5011880;28;20041;-71
2022/11/27 07:18:51;;;;;;;14.18;6.22;;;2.10;99.90;;;;;;5010223;28;20041;-70
2022/11/27 07:21:17;;;;;;;10.02;5.63;;;2.20;99.90;;;;;;4999945;28;20433;-70
2022/11/27 07:23:43;;;;;;;13.35;7.00;;;2.20;99.90;;;;;;5011344;28;20037;-69
2022/11/27 07:26:25;;;;;;;13.65;6.22;;;2.30;99.90;;;;;;5009975;28;20042;-71
2022/11/27 07:28:51;;;;;;;12.52;6.38;;;2.20;99.90;;;;;;5008143;28;20031;-71
2022/11/27 07:31:21;;;;;;;9.13;5.30;;;2.30;99.90;;;;;;5009284;28;20026;-69
2022/11/27 07:33:47;;;;;;;13.45;6.68;;;2.60;99.90;;;;;;5012211;28;20061;-70
2022/11/27 07:36:19;;;;;;;15.25;6.97;;;2.80;99.90;;;;;;5005624;28;20057;-68
2022/11/27 07:38:46;;;;;;;12.40;6.88;;;2.80;99.90;;;;;;5008856;28;20021;-69
2022/11/27 07:41:13;;;;;;;13.85;5.55;;;2.70;99.90;;;;;;5010675;28;20030;-72
2022/11/27 07:43:40;;;;;;;15.73;6.25;;;2.70;99.90;;;;;;5009769;28;20038;-72
2022/11/27 07:46:17;;;;;;;26.98;6.10;;;2.70;99.90;;;;;;5010664;28;20465;-71
2022/11/27 07:48:43;;;;;;;25.10;5.53;;;2.70;99.90;;;;;;5010101;28;20037;-70
2022/11/27 07:51:12;;;;;;;13.27;8.02;;;2.80;99.90;;;;;;5008260;28;20022;-70
2022/11/27 07:53:39;;;;;;;14.18;6.72;;;2.80;99.90;;;;;;5010579;28;20029;-71
2022/11/27 07:56:12;;;;;;;10.18;6.03;;;2.70;99.90;;;;;;5010525;28;20096;-69
2022/11/27 07:58:37;;;;;;;15.73;7.18;;;2.80;99.90;;;;;;5011278;28;20036;-72
2022/11/27 08:01:13;;;;;;;10.43;4.90;;;2.60;99.90;;;;;;5015398;28;20456;-70
2022/11/27 08:03:39;;;;;;;11.57;4.72;;;2.60;99.90;;;;;;5010025;28;20037;-70
2022/11/27 08:06:11;;;;;;;10.35;5.88;;;2.70;99.90;;;;;;5010273;28;20572;-70
2022/11/27 08:08:37;;;;;;;9.20;4.28;;;2.70;99.90;;;;;;5009978;28;20478;-70
2022/11/27 08:11:03;;;;;;;7.70;5.03;;;2.80;99.90;;;;;;5007152;28;20037;-71
2022/11/27 08:13:28;;;;;;;13.32;7.35;;;2.90;99.90;;;;;;5009679;28;20434;-71
2022/11/27 08:15:58;;;;;;;12.52;5.72;;;2.90;99.90;;;;;;5010312;28;20040;-72
2022/11/27 08:18:24;;;;;;;13.73;7.63;;;2.90;99.90;;;;;;5009897;28;20049;-71
2022/11/27 08:20:49;;;;;;;16.55;6.07;;;3.00;99.90;;;;;;5010206;28;20063;-72
2022/11/27 08:23:15;;;;;;;11.63;6.28;;;2.90;99.90;;;;;;4988689;28;20030;-70
2022/11/27 08:25:41;;;;;;;15.95;9.30;;;2.90;99.90;;;;;;5009609;28;20101;-70
2022/11/27 08:28:07;;;;;;;8.02;6.18;;;2.90;99.90;;;;;;5013644;28;20128;-70
2022/11/27 08:30:32;;;;;;;11.75;6.15;;;3.10;99.90;;;;;;5010516;28;20034;-71
2022/11/27 08:32:58;;;;;;;11.93;4.57;;;3.00;99.90;;;;;;5010155;28;20116;-70
2022/11/27 08:35:24;;;;;;;18.70;8.75;;;3.10;99.90;;;;;;5010951;28;20092;-71
2022/11/27 08:37:49;;;;;;;13.93;6.13;;;3.00;99.90;;;;;;5010559;28;20092;-72
2022/11/27 08:40:15;;;;;;;10.68;6.20;;;2.90;99.90;;;;;;5009181;28;20080;-71
2022/11/27 08:42:41;;;;;;;19.25;7.35;;;3.00;99.90;;;;;;5010156;28;20026;-70
2022/11/27 08:45:07;;;;;;;11.82;6.15;;;3.10;99.90;;;;;;5009673;28;20050;-72
2022/11/27 08:47:33;;;;;;;14.15;8.80;;;3.10;99.90;;;;;;5010443;28;20092;-72
2022/11/27 08:49:59;;;;;;;11.98;5.90;;;3.20;99.90;;;;;;5010262;28;20042;-76
2022/11/27 08:52:25;;;;;;;12.63;5.38;;;3.30;99.90;;;;;;5011937;28;20025;-71
2022/11/27 08:54:50;;;;;;;18.13;7.97;;;3.30;99.90;;;;;;5014406;28;20425;-71
2022/11/27 08:57:16;;;;;;;20.52;8.43;;;3.00;99.90;;;;;;5002791;28;20478;-71
2022/11/27 08:59:42;;;;;;;14.07;8.20;;;3.10;99.90;;;;;;5006533;28;20038;-71
2022/11/27 09:02:12;;;;;;;14.50;6.80;;;3.20;99.90;;;;;;5009321;28;20095;-71
2022/11/27 09:04:37;;;;;;;16.92;9.90;;;3.20;99.90;;;;;;5014185;28;20049;-70
2022/11/27 09:07:03;;;;;;;19.00;7.40;;;3.20;99.90;;;;;;5012835;28;20743;-71
2022/11/27 09:09:29;;;;;;;18.73;8.70;;;3.40;99.90;;;;;;4993302;28;20103;-70
2022/11/27 09:11:55;;;;;;;13.30;6.95;;;3.40;99.90;;;;;;5013777;28;20531;-70
2022/11/27 09:14:20;;;;;;;12.13;6.88;;;3.60;99.90;;;;;;5013691;28;20026;-71
2022/11/27 09:16:46;;;;;;;12.43;6.78;;;3.70;99.90;;;;;;5014198;28;20041;-71
2022/11/27 09:19:12;;;;;;;18.77;9.95;;;4.00;99.90;;;;;;5012437;28;20401;-71
2022/11/27 09:21:38;;;;;;;11.57;6.88;;;4.10;99.90;;;;;;5013645;28;20478;-73
2022/11/27 09:24:04;;;;;;;11.68;4.65;;;4.30;99.90;;;;;;5013427;28;20453;-73
2022/11/27 09:26:30;;;;;;;11.23;6.18;;;4.20;99.90;;;;;;5012491;28;20034;-69
2022/11/27 09:28:57;;;;;;;18.23;5.82;;;4.40;99.90;;;;;;5013554;28;20040;-72
2022/11/27 09:31:24;;;;;;;18.45;6.40;;;4.50;99.90;;;;;;5009009;28;20026;-73
2022/11/27 09:33:50;;;;;;;15.13;6.13;;;4.60;99.90;;;;;;5011741;28;20394;-72
2022/11/27 09:36:23;;;;;;;10.07;5.38;;;4.90;99.90;;;;;;5009589;28;20116;-71
2022/11/27 09:38:50;;;;;;;10.68;5.63;;;5.20;99.90;;;;;;5010206;28;20113;-70
2022/11/27 09:41:18;;;;;;;15.20;8.10;;;5.30;99.90;;;;;;5012966;28;20025;-71
2022/11/27 09:43:56;;;;;;;13.45;6.70;;;5.90;99.90;;;;;;5013027;28;20041;-70
2022/11/27 09:46:38;;;;;;;17.20;7.10;;;6.40;99.90;;;;;;5004871;28;20092;-70
2022/11/27 09:49:16;;;;;;;17.25;6.97;;;6.70;99.90;;;;;;5009763;28;20632;-70
2022/11/27 09:52:21;;;;;;;15.50;6.10;;;6.80;99.90;;;;;;5011769;28;20068;-69
2022/11/27 09:55:00;;;;;;;12.70;5.88;;;6.90;99.90;;;;;;5004910;28;20125;-68
2022/11/27 09:57:36;;;;;;;17.20;6.88;;;7.40;99.90;;;;;;5010350;28;20030;-69
2022/11/27 10:00:20;;;;;;;20.85;6.85;;;8.20;99.90;;;;;;5010701;28;20592;-68
2022/11/27 10:02:47;;;;;;;17.00;6.80;;;9.00;99.90;;;;;;5008948;28;20495;-69
2022/11/27 10:05:24;;;;;;;15.35;6.40;;;8.70;99.90;;;;;;5025757;28;20038;-69
2022/11/27 10:08:24;;;;;;;15.98;6.38;;;8.50;99.90;;;;;;5010658;28;20030;-68
2022/11/27 10:11:30;;;;;;;13.25;6.05;;;8.10;99.90;;;;;;5012701;28;20401;-69
2022/11/27 10:14:36;;;;;;;13.05;5.50;;;7.90;99.90;;;;;;5001259;28;20108;-69
2022/11/27 10:17:16;;;;;;;7.13;4.03;;;7.80;99.90;;;;;;5012967;28;20068;-69
2022/11/27 10:20:30;;;;;;;11.93;5.30;;;8.10;99.90;;;;;;5011182;28;20034;-69
2022/11/27 10:23:08;;;;;;;7.63;4.10;;;8.10;99.90;;;;;;5011064;28;20045;-69
2022/11/27 10:25:44;;;;;;;9.00;4.68;;;7.40;99.90;;;;;;5006953;28;20037;-69
2022/11/27 10:28:09;;;;;;;9.38;4.28;;;7.20;99.90;;;;;;5012458;28;20030;-69
2022/11/27 10:31:16;;;;;;;9.20;5.10;;;7.00;99.90;;;;;;5012126;28;20030;-69
2022/11/27 10:33:52;;;;;;;12.73;4.97;;;7.00;99.90;;;;;;4994751;28;20037;-70
2022/11/27 10:36:40;;;;;;;14.15;6.82;;;7.20;99.90;;;;;;5003586;28;20076;-70
2022/11/27 10:39:16;;;;;;;10.23;4.55;;;7.50;99.90;;;;;;5011131;28;20061;-67
2022/11/27 10:41:55;;;;;;;11.88;5.82;;;7.50;99.90;;;;;;5010545;28;20038;-71
2022/11/27 10:44:34;;;;;;;7.82;4.25;;;7.60;99.90;;;;;;5019838;28;20021;-68
2022/11/27 10:47:07;;;;;;;14.90;5.15;;;7.40;99.90;;;;;;5010330;28;20045;-69
2022/11/27 10:49:38;;;;;;;10.07;5.75;;;7.30;99.90;;;;;;5010898;28;20029;-77
2022/11/27 10:52:03;;;;;;;9.23;5.15;;;7.50;99.90;;;;;;5026414;28;20030;-70
2022/11/27 10:54:35;;;;;;;13.20;5.07;;;7.60;99.90;;;;;;5012220;28;20397;-69
2022/11/27 10:57:57;;;;;;;11.63;5.45;;;8.00;99.90;;;;;;5009557;28;20054;-69
2022/11/27 11:00:24;;;;;;;8.60;4.72;;;9.00;99.90;;;;;;5010211;28;20021;-69
2022/11/27 11:03:06;;;;;;;9.40;4.88;;;9.50;99.90;;;;;;5009218;28;20064;-69
2022/11/27 11:05:34;;;;;;;10.10;4.97;;;8.80;99.90;;;;;;5011624;28;20034;-69
2022/11/27 11:08:14;;;;;;;12.50;4.82;;;10.50;99.90;;;;;;5010838;28;20509;-69
2022/11/27 11:10:48;;;;;;;12.38;4.18;;;10.10;99.90;;;;;;5010886;28;20033;-69
2022/11/27 11:13:18;;;;;;;11.02;4.45;;;10.10;99.90;;;;;;5011525;28;20114;-70
2022/11/27 11:16:00;;;;;;;9.60;4.75;;;9.70;99.90;;;;;;5011349;28;20037;-70
2022/11/27 11:18:41;;;;;;;9.82;5.10;;;10.10;99.90;;;;;;5004913;28;20041;-70
2022/11/27 11:21:25;;;;;;;11.43;4.47;;;11.00;99.90;;;;;;5010006;28;20122;-70
2022/11/27 11:24:22;;;;;;;10.15;4.60;;;11.20;99.90;;;;;;5011800;28;20116;-70
2022/11/27 11:27:03;;;;;;;11.10;4.75;;;10.80;99.90;;;;;;5010900;28;20489;-70
2022/11/27 11:29:41;;;;;;;14.50;5.63;;;10.70;99.90;;;;;;5005471;28;20386;-70
2022/11/27 11:32:13;;;;;;;8.48;3.92;;;10.50;99.90;;;;;;4991658;28;20032;-69
2022/11/27 11:35:07;;;;;;;10.07;5.50;;;10.40;99.90;;;;;;5004347;28;20034;-70
2022/11/27 11:37:38;;;;;;;9.63;5.53;;;10.40;99.90;;;;;;5005427;28;20025;-70
2022/11/27 11:40:13;;;;;;;26.00;10.88;;;10.60;99.90;;;;;;5009557;28;20038;-69
2022/11/27 11:42:57;;;;;;;17.02;5.20;;;11.00;99.90;;;;;;5010962;28;20462;-70
2022/11/27 11:45:25;;;;;;;9.90;5.10;;;10.60;99.90;;;;;;5010607;28;20044;-70
2022/11/27 11:47:55;;;;;;;11.88;5.05;;;10.10;99.90;;;;;;5009647;28;20033;-69
2022/11/27 11:50:58;;;;;;;14.25;5.35;;;9.90;99.90;;;;;;5024961;28;20030;-69
2022/11/27 11:53:44;;;;;;;9.57;4.60;;;9.90;99.90;;;;;;4993062;28;20116;-70
2022/11/27 11:56:30;;;;;;;8.98;4.32;;;9.60;99.90;;;;;;5010466;28;20042;-69
2022/11/27 11:59:40;;;;;;;11.57;4.75;;;10.10;99.90;;;;;;5010008;28;20030;-70
2022/11/27 12:02:58;;;;;;;11.05;4.65;;;10.40;99.90;;;;;;5009101;28;20056;-69
2022/11/27 12:05:54;;;;;;;11.05;4.45;;;11.20;99.90;;;;;;4994271;28;20049;-69
2022/11/27 12:08:26;;;;;;;12.27;5.13;;;12.10;99.90;;;;;;5009332;28;20092;-69
2022/11/27 12:11:38;;;;;;;8.70;3.80;;;12.20;99.90;;;;;;5025236;28;20061;-69
2022/11/27 12:14:38;;;;;;;8.75;3.83;;;12.20;99.90;;;;;;5008273;28;20049;-69
2022/11/27 12:18:00;;;;;;;9.45;4.95;;;13.60;99.90;;;;;;5009173;28;20613;-69
2022/11/27 12:20:44;;;;;;;51.92;17.92;;;13.10;99.90;;;;;;5009689;28;20030;-70
2022/11/27 12:23:31;;;;;;;15.88;8.90;;;13.60;99.90;;;;;;5009834;28;20029;-68
2022/11/27 12:26:27;;;;;;;6.20;3.85;;;13.20;99.90;;;;;;5016471;28;20064;-69
2022/11/27 12:29:10;;;;;;;7.13;4.18;;;13.70;99.90;;;;;;5004699;28;20045;-69
2022/11/27 12:32:14;;;;;;;8.65;4.40;;;13.80;99.90;;;;;;5016400;28;20086;-68
2022/11/27 12:34:55;;;;;;;7.53;4.13;;;13.60;99.90;;;;;;5015795;28;20045;-68
2022/11/27 12:37:43;;;;;;;8.27;3.75;;;13.00;99.90;;;;;;5023446;28;20026;-69
2022/11/27 12:41:29;;;;;;;7.72;4.00;;;12.30;99.90;;;;;;5067460;28;20381;-63
2022/11/27 12:43:59;;;;;;;9.00;4.18;;;12.10;99.90;;;;;;5028292;28;20037;-62
2022/11/27 12:47:01;;;;;;;12.10;4.78;;;11.00;99.90;;;;;;5046392;28;20033;-62
2022/11/27 12:49:49;;;;;;;12.85;5.18;;;11.10;99.90;;;;;;5029352;28;20029;-63
2022/11/27 12:52:22;;;;;;;13.45;6.63;;;12.30;99.90;;;;;;5045771;28;20389;-62
2022/11/27 12:55:16;;;;;;;20.88;7.13;;;13.00;99.90;;;;;;5039247;28;20068;-63
2022/11/27 12:57:49;;;;;;;11.82;5.28;;;13.20;99.90;;;;;;5053243;28;20044;-63
2022/11/27 13:00:22;;;;;;;11.55;5.55;;;13.70;99.90;;;;;;5045864;28;20489;-62
2022/11/27 13:03:37;;;;;;;7.93;4.60;;;12.40;99.90;;;;;;5029274;28;20056;-63
2022/11/27 13:06:10;;;;;;;9.60;4.72;;;11.90;99.90;;;;;;5059343;28;20060;-63
2022/11/27 13:09:00;;;;;;;16.17;5.20;;;11.90;99.90;;;;;;5046678;28;20141;-63
2022/11/27 13:11:37;;;;;;;9.80;4.57;;;11.90;99.90;;;;;;5074852;28;20032;-64
2022/11/27 13:14:17;;;;;;;8.82;3.40;;;11.30;99.90;;;;;;5063355;28;20034;-64
2022/11/27 13:16:49;;;;;;;8.23;4.10;;;10.80;99.90;;;;;;5065888;28;20029;-63
2022/11/27 13:19:26;;;;;;;8.18;3.50;;;10.70;99.90;;;;;;5065622;28;20028;-63
2022/11/27 13:21:55;;;;;;;9.55;4.10;;;10.30;99.90;;;;;;5063563;28;20097;-63
2022/11/27 13:24:23;;;;;;;15.10;4.57;;;10.10;99.90;;;;;;5066276;28;20025;-63
2022/11/27 13:27:15;;;;;;;8.05;4.68;;;10.10;99.90;;;;;;5069714;28;20028;-63